sensor_id;sensor_type;location;lat;lon;timestamp;P1;durP1;ratioP1;P2;durP2;ratioP2
11582;SDS011;34299;50.820;4.548;2023-08-06T00:01:04;2.60;;;1.10;;
11582;SDS011;34299;50.820;4.548;2023-08-06T00:03:39;3.60;;;1.33;;
11582;SDS011;34299;50.820;4.548;2023-08-06T00:06:06;1.97;;;1.40;;
11582;SDS011;34299;50.820;4.548;2023-08-06T00:08:41;2.97;;;1.30;;
11582;SDS011;34299;50.820;4.548;2023-08-06T00:11:11;3.33;;;1.70;;
11582;SDS011;34299;50.820;4.548;2023-08-06T00:13:43;3.07;;;1.30;;
11582;SDS011;34299;50.820;4.548;2023-08-06T00:16:20;2.43;;;1.43;;
11582;SDS011;34299;50.820;4.548;2023-08-06T00:18:50;3.73;;;1.83;;
11582;SDS011;34299;50.820;4.548;2023-08-06T00:21:20;3.30;;;1.60;;
11582;SDS011;34299;50.820;4.548;2023-08-06T00:23:49;5.43;;;1.70;;
11582;SDS011;34299;50.820;4.548;2023-08-06T00:26:21;3.53;;;1.47;;
11582;SDS011;34299;50.820;4.548;2023-08-06T00:28:52;2.47;;;1.87;;
11582;SDS011;34299;50.820;4.548;2023-08-06T00:31:22;4.10;;;1.60;;
11582;SDS011;34299;50.820;4.548;2023-08-06T00:33:51;5.47;;;2.07;;
11582;SDS011;34299;50.820;4.548;2023-08-06T00:36:18;3.50;;;1.83;;
11582;SDS011;34299;50.820;4.548;2023-08-06T00:38:49;4.97;;;2.03;;
11582;SDS011;34299;50.820;4.548;2023-08-06T00:41:21;3.43;;;2.27;;
11582;SDS011;34299;50.820;4.548;2023-08-06T00:43:49;3.57;;;2.23;;
11582;SDS011;34299;50.820;4.548;2023-08-06T00:46:17;4.73;;;2.53;;
11582;SDS011;34299;50.820;4.548;2023-08-06T00:48:47;5.77;;;2.70;;
11582;SDS011;34299;50.820;4.548;2023-08-06T00:51:15;5.40;;;2.30;;
11582;SDS011;34299;50.820;4.548;2023-08-06T00:53:42;10.00;;;2.80;;
11582;SDS011;34299;50.820;4.548;2023-08-06T00:56:10;3.77;;;2.47;;
11582;SDS011;34299;50.820;4.548;2023-08-06T00:58:42;5.53;;;2.73;;
11582;SDS011;34299;50.820;4.548;2023-08-06T01:01:09;5.83;;;3.27;;
11582;SDS011;34299;50.820;4.548;2023-08-06T01:03:42;6.33;;;2.77;;
11582;SDS011;34299;50.820;4.548;2023-08-06T01:06:09;5.63;;;3.50;;
11582;SDS011;34299;50.820;4.548;2023-08-06T01:08:40;6.20;;;3.10;;
11582;SDS011;34299;50.820;4.548;2023-08-06T01:11:14;10.03;;;3.77;;
11582;SDS011;34299;50.820;4.548;2023-08-06T01:14:05;7.40;;;3.80;;
11582;SDS011;34299;50.820;4.548;2023-08-06T01:16:33;5.67;;;3.37;;
11582;SDS011;34299;50.820;4.548;2023-08-06T01:19:02;9.67;;;4.17;;
11582;SDS011;34299;50.820;4.548;2023-08-06T01:21:33;5.47;;;3.63;;
11582;SDS011;34299;50.820;4.548;2023-08-06T01:24:09;4.37;;;3.20;;
11582;SDS011;34299;50.820;4.548;2023-08-06T01:26:49;5.33;;;3.30;;
11582;SDS011;34299;50.820;4.548;2023-08-06T01:29:27;5.23;;;3.10;;
11582;SDS011;34299;50.820;4.548;2023-08-06T01:31:56;6.17;;;3.43;;
11582;SDS011;34299;50.820;4.548;2023-08-06T01:34:31;4.20;;;3.37;;
11582;SDS011;34299;50.820;4.548;2023-08-06T01:37:03;5.17;;;3.50;;
11582;SDS011;34299;50.820;4.548;2023-08-06T01:39:35;14.40;;;4.70;;
11582;SDS011;34299;50.820;4.548;2023-08-06T01:42:03;10.37;;;4.63;;
11582;SDS011;34299;50.820;4.548;2023-08-06T01:44:33;9.40;;;5.10;;
11582;SDS011;34299;50.820;4.548;2023-08-06T01:47:02;8.43;;;4.40;;
11582;SDS011;34299;50.820;4.548;2023-08-06T01:49:31;6.67;;;4.57;;
11582;SDS011;34299;50.820;4.548;2023-08-06T01:52:02;7.97;;;4.90;;
11582;SDS011;34299;50.820;4.548;2023-08-06T01:54:30;7.93;;;4.07;;
11582;SDS011;34299;50.820;4.548;2023-08-06T01:56:57;7.30;;;4.60;;
11582;SDS011;34299;50.820;4.548;2023-08-06T01:59:24;12.07;;;4.93;;
11582;SDS011;34299;50.820;4.548;2023-08-06T02:01:57;9.50;;;5.23;;
11582;SDS011;34299;50.820;4.548;2023-08-06T02:04:26;7.17;;;5.07;;
11582;SDS011;34299;50.820;4.548;2023-08-06T02:06:53;12.10;;;4.70;;
11582;SDS011;34299;50.820;4.548;2023-08-06T02:09:24;8.83;;;3.97;;
11582;SDS011;34299;50.820;4.548;2023-08-06T02:11:51;12.97;;;4.87;;
11582;SDS011;34299;50.820;4.548;2023-08-06T02:14:21;6.43;;;3.83;;
11582;SDS011;34299;50.820;4.548;2023-08-06T02:16:50;4.47;;;3.43;;
11582;SDS011;34299;50.820;4.548;2023-08-06T02:19:18;6.10;;;3.70;;
11582;SDS011;34299;50.820;4.548;2023-08-06T02:21:45;6.03;;;4.00;;
11582;SDS011;34299;50.820;4.548;2023-08-06T02:24:12;7.83;;;3.77;;
11582;SDS011;34299;50.820;4.548;2023-08-06T02:26:41;8.30;;;3.70;;
11582;SDS011;34299;50.820;4.548;2023-08-06T02:29:10;9.27;;;4.40;;
11582;SDS011;34299;50.820;4.548;2023-08-06T02:31:37;8.23;;;3.30;;
11582;SDS011;34299;50.820;4.548;2023-08-06T02:34:04;5.87;;;2.83;;
11582;SDS011;34299;50.820;4.548;2023-08-06T02:36:32;6.30;;;3.10;;
11582;SDS011;34299;50.820;4.548;2023-08-06T02:39:01;4.57;;;2.37;;
11582;SDS011;34299;50.820;4.548;2023-08-06T02:41:35;3.33;;;2.40;;
11582;SDS011;34299;50.820;4.548;2023-08-06T02:44:04;4.63;;;2.57;;
11582;SDS011;34299;50.820;4.548;2023-08-06T02:46:39;5.43;;;2.37;;
11582;SDS011;34299;50.820;4.548;2023-08-06T02:49:13;4.37;;;2.23;;
11582;SDS011;34299;50.820;4.548;2023-08-06T02:51:44;3.33;;;1.83;;
11582;SDS011;34299;50.820;4.548;2023-08-06T02:54:11;4.70;;;2.17;;
11582;SDS011;34299;50.820;4.548;2023-08-06T02:56:45;3.77;;;2.47;;
11582;SDS011;34299;50.820;4.548;2023-08-06T02:59:14;3.43;;;2.13;;
11582;SDS011;34299;50.820;4.548;2023-08-06T03:01:43;2.53;;;1.73;;
11582;SDS011;34299;50.820;4.548;2023-08-06T03:04:12;2.53;;;2.00;;
11582;SDS011;34299;50.820;4.548;2023-08-06T03:06:43;8.10;;;2.37;;
11582;SDS011;34299;50.820;4.548;2023-08-06T03:09:12;4.13;;;2.10;;
11582;SDS011;34299;50.820;4.548;2023-08-06T03:11:43;2.40;;;2.20;;
11582;SDS011;34299;50.820;4.548;2023-08-06T03:14:14;3.17;;;1.93;;
11582;SDS011;34299;50.820;4.548;2023-08-06T03:16:46;4.90;;;2.00;;
11582;SDS011;34299;50.820;4.548;2023-08-06T03:19:16;3.73;;;2.40;;
11582;SDS011;34299;50.820;4.548;2023-08-06T03:21:47;7.27;;;2.77;;
11582;SDS011;34299;50.820;4.548;2023-08-06T03:24:15;6.27;;;3.60;;
11582;SDS011;34299;50.820;4.548;2023-08-06T03:26:45;3.90;;;2.90;;
11582;SDS011;34299;50.820;4.548;2023-08-06T03:29:15;4.00;;;2.80;;
11582;SDS011;34299;50.820;4.548;2023-08-06T03:31:46;7.73;;;2.90;;
11582;SDS011;34299;50.820;4.548;2023-08-06T03:34:16;5.00;;;2.53;;
11582;SDS011;34299;50.820;4.548;2023-08-06T03:36:43;7.70;;;2.63;;
11582;SDS011;34299;50.820;4.548;2023-08-06T03:39:15;4.77;;;3.37;;
11582;SDS011;34299;50.820;4.548;2023-08-06T03:41:43;12.17;;;4.20;;
11582;SDS011;34299;50.820;4.548;2023-08-06T03:44:18;7.73;;;4.90;;
11582;SDS011;34299;50.820;4.548;2023-08-06T03:46:47;8.37;;;4.37;;
11582;SDS011;34299;50.820;4.548;2023-08-06T03:49:19;13.17;;;4.67;;
11582;SDS011;34299;50.820;4.548;2023-08-06T03:51:46;12.10;;;5.53;;
11582;SDS011;34299;50.820;4.548;2023-08-06T03:54:17;10.43;;;6.30;;
11582;SDS011;34299;50.820;4.548;2023-08-06T03:56:47;14.37;;;6.50;;
11582;SDS011;34299;50.820;4.548;2023-08-06T03:59:16;15.07;;;6.27;;
11582;SDS011;34299;50.820;4.548;2023-08-06T04:01:46;15.73;;;6.67;;
11582;SDS011;34299;50.820;4.548;2023-08-06T04:04:17;14.00;;;8.03;;
11582;SDS011;34299;50.820;4.548;2023-08-06T04:06:49;13.10;;;6.67;;
11582;SDS011;34299;50.820;4.548;2023-08-06T04:09:16;16.37;;;7.03;;
11582;SDS011;34299;50.820;4.548;2023-08-06T04:11:44;13.17;;;7.87;;
11582;SDS011;34299;50.820;4.548;2023-08-06T04:14:13;12.07;;;6.60;;
11582;SDS011;34299;50.820;4.548;2023-08-06T04:16:44;10.27;;;6.37;;
11582;SDS011;34299;50.820;4.548;2023-08-06T04:19:14;12.20;;;5.17;;
11582;SDS011;34299;50.820;4.548;2023-08-06T04:21:41;11.37;;;6.30;;
11582;SDS011;34299;50.820;4.548;2023-08-06T04:24:08;7.87;;;4.10;;
11582;SDS011;34299;50.820;4.548;2023-08-06T04:26:38;6.17;;;3.57;;
11582;SDS011;34299;50.820;4.548;2023-08-06T04:29:05;4.83;;;2.87;;
11582;SDS011;34299;50.820;4.548;2023-08-06T04:31:35;2.77;;;2.00;;
11582;SDS011;34299;50.820;4.548;2023-08-06T04:36:53;0.63;;;0.63;;
11582;SDS011;34299;50.820;4.548;2023-08-06T04:39:24;0.93;;;0.77;;
11582;SDS011;34299;50.820;4.548;2023-08-06T04:42:20;1.50;;;0.70;;
11582;SDS011;34299;50.820;4.548;2023-08-06T04:44:50;0.70;;;0.70;;
11582;SDS011;34299;50.820;4.548;2023-08-06T04:47:20;0.80;;;0.80;;
11582;SDS011;34299;50.820;4.548;2023-08-06T04:49:52;2.87;;;1.30;;
11582;SDS011;34299;50.820;4.548;2023-08-06T04:52:27;1.17;;;1.10;;
11582;SDS011;34299;50.820;4.548;2023-08-06T04:55:06;2.57;;;1.73;;
11582;SDS011;34299;50.820;4.548;2023-08-06T04:57:38;3.73;;;1.83;;
11582;SDS011;34299;50.820;4.548;2023-08-06T05:00:11;5.57;;;1.70;;
11582;SDS011;34299;50.820;4.548;2023-08-06T05:02:47;4.17;;;1.83;;
11582;SDS011;34299;50.820;4.548;2023-08-06T05:05:17;2.63;;;1.77;;
11582;SDS011;34299;50.820;4.548;2023-08-06T05:07:54;5.07;;;2.00;;
11582;SDS011;34299;50.820;4.548;2023-08-06T05:10:30;6.23;;;2.30;;
11582;SDS011;34299;50.820;4.548;2023-08-06T05:13:00;3.90;;;2.37;;
11582;SDS011;34299;50.820;4.548;2023-08-06T05:15:27;3.10;;;2.17;;
11582;SDS011;34299;50.820;4.548;2023-08-06T05:18:02;2.97;;;2.27;;
11582;SDS011;34299;50.820;4.548;2023-08-06T05:20:35;3.23;;;2.30;;
11582;SDS011;34299;50.820;4.548;2023-08-06T05:23:07;5.13;;;1.90;;
11582;SDS011;34299;50.820;4.548;2023-08-06T05:25:41;2.20;;;1.90;;
11582;SDS011;34299;50.820;4.548;2023-08-06T05:28:14;3.03;;;1.47;;
11582;SDS011;34299;50.820;4.548;2023-08-06T05:30:43;3.13;;;2.00;;
11582;SDS011;34299;50.820;4.548;2023-08-06T05:33:11;3.10;;;2.10;;
11582;SDS011;34299;50.820;4.548;2023-08-06T05:35:40;2.40;;;1.90;;
11582;SDS011;34299;50.820;4.548;2023-08-06T05:38:11;3.73;;;2.10;;
11582;SDS011;34299;50.820;4.548;2023-08-06T05:40:47;2.70;;;1.90;;
11582;SDS011;34299;50.820;4.548;2023-08-06T05:43:24;3.03;;;1.70;;
11582;SDS011;34299;50.820;4.548;2023-08-06T05:46:08;1.83;;;1.43;;
11582;SDS011;34299;50.820;4.548;2023-08-06T05:48:48;2.43;;;1.70;;
11582;SDS011;34299;50.820;4.548;2023-08-06T05:51:22;7.70;;;2.20;;
11582;SDS011;34299;50.820;4.548;2023-08-06T05:53:55;2.60;;;1.77;;
11582;SDS011;34299;50.820;4.548;2023-08-06T05:56:29;4.17;;;2.00;;
11582;SDS011;34299;50.820;4.548;2023-08-06T05:58:59;5.73;;;1.83;;
11582;SDS011;34299;50.820;4.548;2023-08-06T06:01:31;3.60;;;2.40;;
11582;SDS011;34299;50.820;4.548;2023-08-06T06:03:59;6.77;;;2.33;;
11582;SDS011;34299;50.820;4.548;2023-08-06T06:06:26;7.60;;;2.60;;
11582;SDS011;34299;50.820;4.548;2023-08-06T06:08:55;6.37;;;2.60;;
11582;SDS011;34299;50.820;4.548;2023-08-06T06:11:25;7.33;;;2.60;;
11582;SDS011;34299;50.820;4.548;2023-08-06T06:13:54;3.13;;;1.97;;
11582;SDS011;34299;50.820;4.548;2023-08-06T06:16:21;4.07;;;2.17;;
11582;SDS011;34299;50.820;4.548;2023-08-06T06:18:49;3.63;;;2.30;;
11582;SDS011;34299;50.820;4.548;2023-08-06T06:21:20;5.80;;;2.60;;
11582;SDS011;34299;50.820;4.548;2023-08-06T06:23:47;6.03;;;2.30;;
11582;SDS011;34299;50.820;4.548;2023-08-06T06:26:17;9.70;;;2.50;;
11582;SDS011;34299;50.820;4.548;2023-08-06T06:28:44;3.30;;;2.10;;
11582;SDS011;34299;50.820;4.548;2023-08-06T06:31:12;6.00;;;2.50;;
11582;SDS011;34299;50.820;4.548;2023-08-06T06:33:42;4.43;;;2.37;;
11582;SDS011;34299;50.820;4.548;2023-08-06T06:36:09;6.37;;;2.30;;
11582;SDS011;34299;50.820;4.548;2023-08-06T06:38:39;5.33;;;2.10;;
11582;SDS011;34299;50.820;4.548;2023-08-06T06:41:07;5.40;;;2.10;;
11582;SDS011;34299;50.820;4.548;2023-08-06T06:43:35;3.87;;;2.43;;
11582;SDS011;34299;50.820;4.548;2023-08-06T06:46:12;9.20;;;2.73;;
11582;SDS011;34299;50.820;4.548;2023-08-06T06:48:39;5.00;;;2.37;;
11582;SDS011;34299;50.820;4.548;2023-08-06T06:51:06;7.40;;;2.43;;
11582;SDS011;34299;50.820;4.548;2023-08-06T06:53:36;4.23;;;2.13;;
11582;SDS011;34299;50.820;4.548;2023-08-06T06:56:05;6.30;;;2.83;;
11582;SDS011;34299;50.820;4.548;2023-08-06T06:58:39;4.90;;;2.80;;
11582;SDS011;34299;50.820;4.548;2023-08-06T07:01:08;4.37;;;2.57;;
11582;SDS011;34299;50.820;4.548;2023-08-06T07:03:39;6.33;;;2.90;;
11582;SDS011;34299;50.820;4.548;2023-08-06T07:06:06;8.47;;;3.23;;
11582;SDS011;34299;50.820;4.548;2023-08-06T07:08:36;8.47;;;2.67;;
11582;SDS011;34299;50.820;4.548;2023-08-06T07:11:05;7.10;;;2.80;;
11582;SDS011;34299;50.820;4.548;2023-08-06T07:13:33;7.70;;;2.57;;
11582;SDS011;34299;50.820;4.548;2023-08-06T07:16:05;4.60;;;2.57;;
11582;SDS011;34299;50.820;4.548;2023-08-06T07:18:34;7.77;;;2.63;;
11582;SDS011;34299;50.820;4.548;2023-08-06T07:21:01;4.23;;;2.20;;
11582;SDS011;34299;50.820;4.548;2023-08-06T07:23:35;7.53;;;2.40;;
11582;SDS011;34299;50.820;4.548;2023-08-06T07:26:04;7.27;;;2.07;;
11582;SDS011;34299;50.820;4.548;2023-08-06T07:28:36;6.40;;;2.67;;
11582;SDS011;34299;50.820;4.548;2023-08-06T07:31:11;8.97;;;2.10;;
11582;SDS011;34299;50.820;4.548;2023-08-06T07:33:42;7.03;;;2.00;;
11582;SDS011;34299;50.820;4.548;2023-08-06T07:36:11;6.27;;;2.40;;
11582;SDS011;34299;50.820;4.548;2023-08-06T07:38:38;5.50;;;2.00;;
11582;SDS011;34299;50.820;4.548;2023-08-06T07:41:06;3.87;;;2.13;;
11582;SDS011;34299;50.820;4.548;2023-08-06T07:43:38;3.80;;;2.00;;
11582;SDS011;34299;50.820;4.548;2023-08-06T07:46:07;4.57;;;1.83;;
11582;SDS011;34299;50.820;4.548;2023-08-06T07:48:37;7.40;;;1.83;;
11582;SDS011;34299;50.820;4.548;2023-08-06T07:51:07;4.20;;;2.00;;
11582;SDS011;34299;50.820;4.548;2023-08-06T07:53:37;4.67;;;1.63;;
11582;SDS011;34299;50.820;4.548;2023-08-06T07:56:05;2.70;;;1.50;;
11582;SDS011;34299;50.820;4.548;2023-08-06T07:58:37;3.93;;;1.37;;
11582;SDS011;34299;50.820;4.548;2023-08-06T08:01:05;3.23;;;1.43;;
11582;SDS011;34299;50.820;4.548;2023-08-06T08:03:33;9.83;;;1.70;;
11582;SDS011;34299;50.820;4.548;2023-08-06T08:06:00;6.80;;;1.40;;
11582;SDS011;34299;50.820;4.548;2023-08-06T08:08:32;3.97;;;1.40;;
11582;SDS011;34299;50.820;4.548;2023-08-06T08:11:03;4.00;;;1.30;;
11582;SDS011;34299;50.820;4.548;2023-08-06T08:13:30;3.30;;;1.40;;
11582;SDS011;34299;50.820;4.548;2023-08-06T08:15:59;4.90;;;1.50;;
11582;SDS011;34299;50.820;4.548;2023-08-06T08:18:26;4.20;;;1.27;;
11582;SDS011;34299;50.820;4.548;2023-08-06T08:20:56;6.77;;;1.70;;
11582;SDS011;34299;50.820;4.548;2023-08-06T08:23:26;4.70;;;1.30;;
11582;SDS011;34299;50.820;4.548;2023-08-06T08:25:55;4.77;;;1.40;;
11582;SDS011;34299;50.820;4.548;2023-08-06T08:28:25;5.73;;;1.33;;
11582;SDS011;34299;50.820;4.548;2023-08-06T08:30:52;6.70;;;1.70;;
11582;SDS011;34299;50.820;4.548;2023-08-06T08:33:22;5.93;;;1.50;;
11582;SDS011;34299;50.820;4.548;2023-08-06T08:35:50;4.97;;;1.83;;
11582;SDS011;34299;50.820;4.548;2023-08-06T08:38:19;2.60;;;1.77;;
11582;SDS011;34299;50.820;4.548;2023-08-06T08:40:49;8.47;;;1.93;;
11582;SDS011;34299;50.820;4.548;2023-08-06T08:43:19;5.77;;;1.40;;
11582;SDS011;34299;50.820;4.548;2023-08-06T08:45:51;6.60;;;1.97;;
11582;SDS011;34299;50.820;4.548;2023-08-06T08:48:22;3.70;;;1.20;;
11582;SDS011;34299;50.820;4.548;2023-08-06T08:50:52;4.27;;;1.97;;
11582;SDS011;34299;50.820;4.548;2023-08-06T08:53:19;3.97;;;1.90;;
11582;SDS011;34299;50.820;4.548;2023-08-06T08:55:52;3.47;;;1.20;;
11582;SDS011;34299;50.820;4.548;2023-08-06T08:58:21;2.20;;;1.10;;
11582;SDS011;34299;50.820;4.548;2023-08-06T09:00:48;3.03;;;1.30;;
11582;SDS011;34299;50.820;4.548;2023-08-06T09:03:16;3.30;;;1.30;;
11582;SDS011;34299;50.820;4.548;2023-08-06T09:05:45;6.70;;;1.90;;
11582;SDS011;34299;50.820;4.548;2023-08-06T09:08:18;7.67;;;2.23;;
11582;SDS011;34299;50.820;4.548;2023-08-06T09:10:46;4.17;;;1.43;;
11582;SDS011;34299;50.820;4.548;2023-08-06T09:13:15;7.13;;;1.60;;
11582;SDS011;34299;50.820;4.548;2023-08-06T09:15:45;3.83;;;1.50;;
11582;SDS011;34299;50.820;4.548;2023-08-06T09:18:14;8.53;;;2.37;;
11582;SDS011;34299;50.820;4.548;2023-08-06T09:20:42;9.73;;;1.70;;
11582;SDS011;34299;50.820;4.548;2023-08-06T09:23:09;8.97;;;1.67;;
11582;SDS011;34299;50.820;4.548;2023-08-06T09:25:37;5.33;;;2.03;;
11582;SDS011;34299;50.820;4.548;2023-08-06T09:28:08;5.63;;;1.77;;
11582;SDS011;34299;50.820;4.548;2023-08-06T09:30:36;5.67;;;1.47;;
11582;SDS011;34299;50.820;4.548;2023-08-06T09:33:06;3.63;;;1.27;;
11582;SDS011;34299;50.820;4.548;2023-08-06T09:35:36;4.80;;;1.67;;
11582;SDS011;34299;50.820;4.548;2023-08-06T09:38:06;4.00;;;1.40;;
11582;SDS011;34299;50.820;4.548;2023-08-06T09:40:35;5.53;;;1.47;;
11582;SDS011;34299;50.820;4.548;2023-08-06T09:43:05;6.83;;;1.37;;
11582;SDS011;34299;50.820;4.548;2023-08-06T09:45:33;2.93;;;1.00;;
11582;SDS011;34299;50.820;4.548;2023-08-06T09:48:02;4.37;;;1.70;;
11582;SDS011;34299;50.820;4.548;2023-08-06T09:50:32;1.90;;;1.37;;
11582;SDS011;34299;50.820;4.548;2023-08-06T09:53:01;5.90;;;1.70;;
11582;SDS011;34299;50.820;4.548;2023-08-06T09:55:32;2.00;;;1.33;;
11582;SDS011;34299;50.820;4.548;2023-08-06T09:58:03;5.23;;;1.40;;
11582;SDS011;34299;50.820;4.548;2023-08-06T10:00:35;6.80;;;1.30;;
11582;SDS011;34299;50.820;4.548;2023-08-06T10:03:05;2.53;;;1.20;;
11582;SDS011;34299;50.820;4.548;2023-08-06T10:05:40;3.10;;;1.20;;
11582;SDS011;34299;50.820;4.548;2023-08-06T10:08:10;3.07;;;1.23;;
11582;SDS011;34299;50.820;4.548;2023-08-06T10:10:37;1.90;;;1.13;;
11582;SDS011;34299;50.820;4.548;2023-08-06T10:13:09;4.83;;;1.43;;
11582;SDS011;34299;50.820;4.548;2023-08-06T10:15:39;4.23;;;1.70;;
11582;SDS011;34299;50.820;4.548;2023-08-06T10:18:09;9.03;;;1.67;;
11582;SDS011;34299;50.820;4.548;2023-08-06T10:20:48;6.07;;;1.50;;
11582;SDS011;34299;50.820;4.548;2023-08-06T10:23:21;3.63;;;1.43;;
11582;SDS011;34299;50.820;4.548;2023-08-06T10:26:05;2.93;;;1.40;;
11582;SDS011;34299;50.820;4.548;2023-08-06T10:28:35;9.70;;;1.67;;
11582;SDS011;34299;50.820;4.548;2023-08-06T10:31:03;4.30;;;1.47;;
11582;SDS011;34299;50.820;4.548;2023-08-06T10:33:48;6.63;;;1.47;;
11582;SDS011;34299;50.820;4.548;2023-08-06T10:36:54;4.20;;;1.00;;
11582;SDS011;34299;50.820;4.548;2023-08-06T10:39:50;2.97;;;1.37;;
11582;SDS011;34299;50.820;4.548;2023-08-06T10:42:29;3.60;;;1.33;;
11582;SDS011;34299;50.820;4.548;2023-08-06T10:45:21;5.13;;;1.67;;
11582;SDS011;34299;50.820;4.548;2023-08-06T10:47:56;4.47;;;1.10;;
11582;SDS011;34299;50.820;4.548;2023-08-06T10:50:27;2.57;;;1.30;;
11582;SDS011;34299;50.820;4.548;2023-08-06T10:53:03;5.47;;;1.27;;
11582;SDS011;34299;50.820;4.548;2023-08-06T10:55:33;2.60;;;1.00;;
11582;SDS011;34299;50.820;4.548;2023-08-06T10:58:06;4.00;;;1.43;;
11582;SDS011;34299;50.820;4.548;2023-08-06T11:00:33;2.50;;;1.60;;
11582;SDS011;34299;50.820;4.548;2023-08-06T11:03:03;3.23;;;1.10;;
11582;SDS011;34299;50.820;4.548;2023-08-06T11:05:34;6.00;;;1.57;;
11582;SDS011;34299;50.820;4.548;2023-08-06T11:08:04;2.43;;;1.53;;
11582;SDS011;34299;50.820;4.548;2023-08-06T11:10:33;2.30;;;1.20;;
11582;SDS011;34299;50.820;4.548;2023-08-06T11:13:08;6.13;;;1.57;;
11582;SDS011;34299;50.820;4.548;2023-08-06T11:15:38;6.50;;;1.80;;
11582;SDS011;34299;50.820;4.548;2023-08-06T11:18:06;5.90;;;1.73;;
11582;SDS011;34299;50.820;4.548;2023-08-06T11:20:36;4.50;;;1.50;;
11582;SDS011;34299;50.820;4.548;2023-08-06T11:23:14;5.43;;;1.93;;
11582;SDS011;34299;50.820;4.548;2023-08-06T11:25:44;5.20;;;1.83;;
11582;SDS011;34299;50.820;4.548;2023-08-06T11:28:11;2.57;;;1.60;;
11582;SDS011;34299;50.820;4.548;2023-08-06T11:30:54;8.87;;;2.00;;
11582;SDS011;34299;50.820;4.548;2023-08-06T11:33:24;6.40;;;3.23;;
11582;SDS011;34299;50.820;4.548;2023-08-06T11:35:53;6.03;;;2.07;;
11582;SDS011;34299;50.820;4.548;2023-08-06T11:38:32;5.03;;;1.53;;
11582;SDS011;34299;50.820;4.548;2023-08-06T11:41:01;3.50;;;1.60;;
11582;SDS011;34299;50.820;4.548;2023-08-06T11:43:30;4.10;;;1.60;;
11582;SDS011;34299;50.820;4.548;2023-08-06T11:46:01;1.43;;;1.17;;
11582;SDS011;34299;50.820;4.548;2023-08-06T11:48:49;5.50;;;1.97;;
11582;SDS011;34299;50.820;4.548;2023-08-06T11:51:18;4.33;;;1.20;;
11582;SDS011;34299;50.820;4.548;2023-08-06T11:53:55;5.23;;;1.30;;
11582;SDS011;34299;50.820;4.548;2023-08-06T11:56:23;6.43;;;1.57;;
11582;SDS011;34299;50.820;4.548;2023-08-06T11:59:01;2.20;;;1.10;;
11582;SDS011;34299;50.820;4.548;2023-08-06T12:01:34;1.30;;;1.20;;
11582;SDS011;34299;50.820;4.548;2023-08-06T12:04:10;2.47;;;1.20;;
11582;SDS011;34299;50.820;4.548;2023-08-06T12:06:46;3.47;;;1.30;;
11582;SDS011;34299;50.820;4.548;2023-08-06T12:12:18;4.37;;;1.23;;
11582;SDS011;34299;50.820;4.548;2023-08-06T12:14:46;3.50;;;1.20;;
11582;SDS011;34299;50.820;4.548;2023-08-06T12:17:14;5.50;;;1.13;;
11582;SDS011;34299;50.820;4.548;2023-08-06T12:19:48;4.47;;;1.60;;
11582;SDS011;34299;50.820;4.548;2023-08-06T12:22:20;2.70;;;1.37;;
11582;SDS011;34299;50.820;4.548;2023-08-06T12:24:58;3.50;;;1.40;;
11582;SDS011;34299;50.820;4.548;2023-08-06T12:27:26;3.97;;;1.10;;
11582;SDS011;34299;50.820;4.548;2023-08-06T12:29:58;5.53;;;3.20;;
11582;SDS011;34299;50.820;4.548;2023-08-06T12:32:29;3.80;;;1.57;;
11582;SDS011;34299;50.820;4.548;2023-08-06T12:35:00;2.00;;;1.40;;
11582;SDS011;34299;50.820;4.548;2023-08-06T12:37:32;5.53;;;1.67;;
11582;SDS011;34299;50.820;4.548;2023-08-06T12:39:59;4.07;;;1.43;;
11582;SDS011;34299;50.820;4.548;2023-08-06T12:42:30;4.00;;;1.50;;
11582;SDS011;34299;50.820;4.548;2023-08-06T12:45:00;6.80;;;1.73;;
11582;SDS011;34299;50.820;4.548;2023-08-06T12:47:30;3.10;;;1.70;;
11582;SDS011;34299;50.820;4.548;2023-08-06T12:49:57;3.97;;;1.47;;
11582;SDS011;34299;50.820;4.548;2023-08-06T12:52:29;5.33;;;1.83;;
11582;SDS011;34299;50.820;4.548;2023-08-06T12:55:00;7.13;;;1.70;;
11582;SDS011;34299;50.820;4.548;2023-08-06T12:57:33;2.80;;;1.23;;
11582;SDS011;34299;50.820;4.548;2023-08-06T13:00:06;4.03;;;1.20;;
11582;SDS011;34299;50.820;4.548;2023-08-06T13:02:36;2.63;;;1.30;;
11582;SDS011;34299;50.820;4.548;2023-08-06T13:05:06;6.57;;;1.40;;
11582;SDS011;34299;50.820;4.548;2023-08-06T13:07:35;4.30;;;1.40;;
11582;SDS011;34299;50.820;4.548;2023-08-06T13:10:08;5.57;;;1.50;;
11582;SDS011;34299;50.820;4.548;2023-08-06T13:12:47;1.73;;;1.00;;
11582;SDS011;34299;50.820;4.548;2023-08-06T13:15:18;2.53;;;1.07;;
11582;SDS011;34299;50.820;4.548;2023-08-06T13:17:50;4.97;;;1.17;;
11582;SDS011;34299;50.820;4.548;2023-08-06T13:20:21;2.87;;;1.13;;
11582;SDS011;34299;50.820;4.548;2023-08-06T13:22:54;7.80;;;1.80;;
11582;SDS011;34299;50.820;4.548;2023-08-06T13:25:33;2.07;;;1.37;;
11582;SDS011;34299;50.820;4.548;2023-08-06T13:28:08;4.13;;;1.43;;
11582;SDS011;34299;50.820;4.548;2023-08-06T13:30:41;4.67;;;1.50;;
11582;SDS011;34299;50.820;4.548;2023-08-06T13:33:08;4.20;;;1.77;;
11582;SDS011;34299;50.820;4.548;2023-08-06T13:35:38;4.57;;;1.40;;
11582;SDS011;34299;50.820;4.548;2023-08-06T13:38:08;4.70;;;1.70;;
11582;SDS011;34299;50.820;4.548;2023-08-06T13:40:37;4.63;;;1.50;;
11582;SDS011;34299;50.820;4.548;2023-08-06T13:43:16;2.53;;;1.20;;
11582;SDS011;34299;50.820;4.548;2023-08-06T13:46:08;1.93;;;1.40;;
11582;SDS011;34299;50.820;4.548;2023-08-06T13:48:42;2.90;;;1.53;;
11582;SDS011;34299;50.820;4.548;2023-08-06T13:51:09;7.37;;;1.50;;
11582;SDS011;34299;50.820;4.548;2023-08-06T13:53:40;1.37;;;1.00;;
11582;SDS011;34299;50.820;4.548;2023-08-06T13:56:20;5.53;;;1.50;;
11582;SDS011;34299;50.820;4.548;2023-08-06T13:58:49;4.10;;;1.33;;
11582;SDS011;34299;50.820;4.548;2023-08-06T14:01:20;4.53;;;1.33;;
11582;SDS011;34299;50.820;4.548;2023-08-06T14:03:48;2.50;;;0.93;;
11582;SDS011;34299;50.820;4.548;2023-08-06T14:06:28;6.00;;;1.30;;
11582;SDS011;34299;50.820;4.548;2023-08-06T14:08:59;3.00;;;1.37;;
11582;SDS011;34299;50.820;4.548;2023-08-06T14:11:29;5.10;;;1.17;;
11582;SDS011;34299;50.820;4.548;2023-08-06T14:13:59;1.97;;;0.93;;
11582;SDS011;34299;50.820;4.548;2023-08-06T14:16:28;3.53;;;1.20;;
11582;SDS011;34299;50.820;4.548;2023-08-06T14:18:58;4.70;;;1.10;;
11582;SDS011;34299;50.820;4.548;2023-08-06T14:21:28;3.17;;;1.00;;
11582;SDS011;34299;50.820;4.548;2023-08-06T14:23:58;2.83;;;1.20;;
11582;SDS011;34299;50.820;4.548;2023-08-06T14:26:31;3.53;;;1.00;;
11582;SDS011;34299;50.820;4.548;2023-08-06T14:29:04;3.83;;;1.40;;
11582;SDS011;34299;50.820;4.548;2023-08-06T14:31:36;1.83;;;0.80;;
11582;SDS011;34299;50.820;4.548;2023-08-06T14:34:11;3.87;;;1.00;;
11582;SDS011;34299;50.820;4.548;2023-08-06T14:36:41;2.47;;;1.47;;
11582;SDS011;34299;50.820;4.548;2023-08-06T14:39:11;2.53;;;1.47;;
11582;SDS011;34299;50.820;4.548;2023-08-06T14:41:42;5.63;;;1.60;;
11582;SDS011;34299;50.820;4.548;2023-08-06T14:44:11;5.77;;;1.40;;
11582;SDS011;34299;50.820;4.548;2023-08-06T14:46:41;5.27;;;1.53;;
11582;SDS011;34299;50.820;4.548;2023-08-06T14:49:13;4.77;;;1.20;;
11582;SDS011;34299;50.820;4.548;2023-08-06T14:51:42;4.90;;;1.40;;
11582;SDS011;34299;50.820;4.548;2023-08-06T14:54:10;2.43;;;1.23;;
11582;SDS011;34299;50.820;4.548;2023-08-06T14:56:39;4.33;;;1.37;;
11582;SDS011;34299;50.820;4.548;2023-08-06T14:59:07;4.27;;;1.53;;
11582;SDS011;34299;50.820;4.548;2023-08-06T15:01:36;3.83;;;1.50;;
11582;SDS011;34299;50.820;4.548;2023-08-06T15:04:04;4.47;;;1.43;;
11582;SDS011;34299;50.820;4.548;2023-08-06T15:06:36;6.90;;;1.53;;
11582;SDS011;34299;50.820;4.548;2023-08-06T15:09:03;1.90;;;1.27;;
11582;SDS011;34299;50.820;4.548;2023-08-06T15:11:30;5.10;;;1.70;;
11582;SDS011;34299;50.820;4.548;2023-08-06T15:14:09;3.87;;;1.73;;
11582;SDS011;34299;50.820;4.548;2023-08-06T15:16:46;4.43;;;1.63;;